sensor_id;sensor_type;location;lat;lon;timestamp;pressure;altitude;pressure_sealevel;temperature;humidity
17373;BME280;8803;48.116;11.590;2024-03-25T00:00:19;94786.25;;;8.30;69.33
17373;BME280;8803;48.116;11.590;2024-03-25T00:04:42;94778.13;;;8.32;69.29
17373;BME280;8803;48.116;11.590;2024-03-25T00:09:04;94781.48;;;8.34;69.27
17373;BME280;8803;48.116;11.590;2024-03-25T00:13:23;94792.23;;;8.32;69.31
17373;BME280;8803;48.116;11.590;2024-03-25T00:15:31;94794.84;;;8.28;69.25
17373;BME280;8803;48.116;11.590;2024-03-25T00:19:53;94784.48;;;8.35;69.09
17373;BME280;8803;48.116;11.590;2024-03-25T00:24:17;94788.31;;;8.36;69.08
17373;BME280;8803;48.116;11.590;2024-03-25T00:28:36;94786.04;;;8.41;68.74
17373;BME280;8803;48.116;11.590;2024-03-25T00:32:57;94785.66;;;8.36;68.83
17373;BME280;8803;48.116;11.590;2024-03-25T00:37:25;94783.98;;;8.35;68.95
17373;BME280;8803;48.116;11.590;2024-03-25T00:41:42;94779.67;;;8.34;68.67
17373;BME280;8803;48.116;11.590;2024-03-25T00:46:06;94774.36;;;8.34;68.94
17373;BME280;8803;48.116;11.590;2024-03-25T00:50:28;94769.97;;;8.29;68.94
17373;BME280;8803;48.116;11.590;2024-03-25T00:52:36;94769.05;;;8.25;68.94
17373;BME280;8803;48.116;11.590;2024-03-25T00:56:55;94763.83;;;8.29;68.83
17373;BME280;8803;48.116;11.590;2024-03-25T01:01:19;94767.32;;;8.29;68.87
17373;BME280;8803;48.116;11.590;2024-03-25T01:05:42;94773.27;;;8.27;68.78
17373;BME280;8803;48.116;11.590;2024-03-25T01:10:04;94765.06;;;8.25;68.49
17373;BME280;8803;48.116;11.590;2024-03-25T01:14:31;94765.66;;;8.19;68.89
17373;BME280;8803;48.116;11.590;2024-03-25T01:18:52;94756.52;;;8.17;68.93
17373;BME280;8803;48.116;11.590;2024-03-25T01:23:14;94758.97;;;8.15;69.17
17373;BME280;8803;48.116;11.590;2024-03-25T01:25:24;94766.54;;;8.10;69.04
17373;BME280;8803;48.116;11.590;2024-03-25T01:29:45;94759.13;;;8.13;69.02
17373;BME280;8803;48.116;11.590;2024-03-25T01:34:08;94765.06;;;8.11;69.33
17373;BME280;8803;48.116;11.590;2024-03-25T01:38:29;94764.58;;;8.12;69.33
17373;BME280;8803;48.116;11.590;2024-03-25T01:43:00;94767.70;;;8.11;69.35
17373;BME280;8803;48.116;11.590;2024-03-25T01:47:28;94771.53;;;8.13;69.07
17373;BME280;8803;48.116;11.590;2024-03-25T01:51:48;94761.03;;;8.07;69.24
17373;BME280;8803;48.116;11.590;2024-03-25T01:56:12;94766.12;;;8.05;69.54
17373;BME280;8803;48.116;11.590;2024-03-25T02:00:38;94766.60;;;8.04;69.41
17373;BME280;8803;48.116;11.590;2024-03-25T02:05:05;94770.73;;;8.03;69.59
17373;BME280;8803;48.116;11.590;2024-03-25T02:09:27;94763.27;;;8.02;69.58
17373;BME280;8803;48.116;11.590;2024-03-25T02:13:50;94764.44;;;8.04;69.42
17373;BME280;8803;48.116;11.590;2024-03-25T02:18:16;94771.36;;;8.01;69.68
17373;BME280;8803;48.116;11.590;2024-03-25T02:22:37;94761.72;;;7.99;69.49
17373;BME280;8803;48.116;11.590;2024-03-25T02:27:00;94767.39;;;8.01;69.59
17373;BME280;8803;48.116;11.590;2024-03-25T02:29:10;94771.64;;;7.97;69.34
17373;BME280;8803;48.116;11.590;2024-03-25T02:33:33;94770.09;;;8.05;69.39
17373;BME280;8803;48.116;11.590;2024-03-25T02:37:56;94770.79;;;8.07;69.15
17373;BME280;8803;48.116;11.590;2024-03-25T02:42:15;94762.63;;;8.04;69.06
17373;BME280;8803;48.116;11.590;2024-03-25T02:46:42;94762.35;;;8.07;68.97
17373;BME280;8803;48.116;11.590;2024-03-25T02:51:06;94765.48;;;8.07;68.79
17373;BME280;8803;48.116;11.590;2024-03-25T02:55:28;94763.27;;;8.02;69.06
17373;BME280;8803;48.116;11.590;2024-03-25T02:59:51;94763.56;;;7.99;69.17
17373;BME280;8803;48.116;11.590;2024-03-25T03:04:12;94765.02;;;7.97;69.23
17373;BME280;8803;48.116;11.590;2024-03-25T03:08:32;94762.93;;;8.01;69.03
17373;BME280;8803;48.116;11.590;2024-03-25T03:12:57;94771.70;;;8.02;68.86
17373;BME280;8803;48.116;11.590;2024-03-25T03:17:20;94776.36;;;8.04;68.77
17373;BME280;8803;48.116;11.590;2024-03-25T03:21:44;94776.36;;;8.04;68.79
17373;BME280;8803;48.116;11.590;2024-03-25T03:26:03;94788.98;;;8.06;68.66
17373;BME280;8803;48.116;11.590;2024-03-25T03:30:25;94780.91;;;8.07;68.45
17373;BME280;8803;48.116;11.590;2024-03-25T03:34:45;94786.05;;;8.09;68.50
17373;BME280;8803;48.116;11.590;2024-03-25T03:39:07;94788.44;;;8.12;68.08
17373;BME280;8803;48.116;11.590;2024-03-25T03:43:33;94783.46;;;8.13;67.82
17373;BME280;8803;48.116;11.590;2024-03-25T03:47:57;94790.39;;;8.10;68.09
17373;BME280;8803;48.116;11.590;2024-03-25T03:52:14;94789.82;;;8.06;68.17
17373;BME280;8803;48.116;11.590;2024-03-25T03:56:33;94787.12;;;8.02;68.37
17373;BME280;8803;48.116;11.590;2024-03-25T04:00:54;94782.66;;;8.03;67.97
17373;BME280;8803;48.116;11.590;2024-03-25T04:05:12;94786.84;;;7.95;68.35
17373;BME280;8803;48.116;11.590;2024-03-25T04:09:34;94783.30;;;7.91;68.12
17373;BME280;8803;48.116;11.590;2024-03-25T04:13:57;94782.06;;;7.85;68.41
17373;BME280;8803;48.116;11.590;2024-03-25T04:18:26;94793.08;;;7.81;68.78
17373;BME280;8803;48.116;11.590;2024-03-25T04:20:37;94791.48;;;7.74;68.66
17373;BME280;8803;48.116;11.590;2024-03-25T04:24:59;94795.45;;;7.74;68.88
17373;BME280;8803;48.116;11.590;2024-03-25T04:29:21;94797.89;;;7.72;68.75
17373;BME280;8803;48.116;11.590;2024-03-25T04:33:40;94791.02;;;7.65;68.88
17373;BME280;8803;48.116;11.590;2024-03-25T04:38:03;94786.36;;;7.63;68.75
17373;BME280;8803;48.116;11.590;2024-03-25T04:42:28;94797.22;;;7.60;68.78
17373;BME280;8803;48.116;11.590;2024-03-25T04:46:49;94796.67;;;7.57;68.75
17373;BME280;8803;48.116;11.590;2024-03-25T04:51:18;94796.79;;;7.55;68.68
17373;BME280;8803;48.116;11.590;2024-03-25T04:57:59;94790.25;;;7.50;68.72
17373;BME280;8803;48.116;11.590;2024-03-25T05:02:32;94795.81;;;7.47;68.85
17373;BME280;8803;48.116;11.590;2024-03-25T05:06:54;94800.71;;;7.42;68.91
17373;BME280;8803;48.116;11.590;2024-03-25T05:11:12;94804.20;;;7.42;68.72
17373;BME280;8803;48.116;11.590;2024-03-25T05:15:31;94821.89;;;7.42;68.72
17373;BME280;8803;48.116;11.590;2024-03-25T05:19:51;94831.02;;;7.43;68.72
17373;BME280;8803;48.116;11.590;2024-03-25T05:24:15;94831.56;;;7.47;68.77
17373;BME280;8803;48.116;11.590;2024-03-25T05:28:34;94836.05;;;7.46;68.69
17373;BME280;8803;48.116;11.590;2024-03-25T05:35:11;94816.58;;;7.51;67.99
17373;BME280;8803;48.116;11.590;2024-03-25T05:39:28;94830.52;;;7.53;67.82
17373;BME280;8803;48.116;11.590;2024-03-25T05:43:48;94831.10;;;7.57;67.61
17373;BME280;8803;48.116;11.590;2024-03-25T05:48:15;94828.31;;;7.58;67.71
17373;BME280;8803;48.116;11.590;2024-03-25T05:52:34;94835.06;;;7.66;67.20
17373;BME280;8803;48.116;11.590;2024-03-25T05:56:55;94836.78;;;8.00;66.67
17373;BME280;8803;48.116;11.590;2024-03-25T06:01:20;94835.78;;;8.66;64.36
17373;BME280;8803;48.116;11.590;2024-03-25T06:05:41;94830.22;;;9.10;62.88
17373;BME280;8803;48.116;11.590;2024-03-25T06:10:01;94830.44;;;9.79;61.27
17373;BME280;8803;48.116;11.590;2024-03-25T06:14:22;94831.65;;;10.20;59.58
17373;BME280;8803;48.116;11.590;2024-03-25T06:16:31;94832.63;;;10.41;58.73
17373;BME280;8803;48.116;11.590;2024-03-25T06:20:52;94830.51;;;10.78;57.84
17373;BME280;8803;48.116;11.590;2024-03-25T06:25:12;94839.94;;;11.40;56.49
17373;BME280;8803;48.116;11.590;2024-03-25T06:29:33;94831.41;;;12.14;55.19
17373;BME280;8803;48.116;11.590;2024-03-25T06:33:52;94833.79;;;12.96;53.43
17373;BME280;8803;48.116;11.590;2024-03-25T06:38:46;94831.14;;;14.23;51.22
17373;BME280;8803;48.116;11.590;2024-03-25T06:43:08;94821.88;;;15.29;47.59
17373;BME280;8803;48.116;11.590;2024-03-25T06:47:30;94823.25;;;15.94;46.07
17373;BME280;8803;48.116;11.590;2024-03-25T06:51:53;94821.27;;;16.66;44.62
17373;BME280;8803;48.116;11.590;2024-03-25T06:56:12;94825.64;;;17.29;42.09
17373;BME280;8803;48.116;11.590;2024-03-25T07:00:34;94810.33;;;17.87;40.55
17373;BME280;8803;48.116;11.590;2024-03-25T07:04:55;94821.41;;;17.58;41.71
17373;BME280;8803;48.116;11.590;2024-03-25T07:09:18;94824.91;;;16.80;42.37
17373;BME280;8803;48.116;11.590;2024-03-25T07:13:48;94832.48;;;16.27;43.91
17373;BME280;8803;48.116;11.590;2024-03-25T07:18:07;94822.08;;;15.93;44.58
17373;BME280;8803;48.116;11.590;2024-03-25T07:22:27;94829.41;;;15.84;44.91
17373;BME280;8803;48.116;11.590;2024-03-25T07:26:52;94819.96;;;15.88;44.58
17373;BME280;8803;48.116;11.590;2024-03-25T07:31:33;94827.01;;;15.89;44.55
17373;BME280;8803;48.116;11.590;2024-03-25T07:35:54;94824.67;;;15.75;44.19
17373;BME280;8803;48.116;11.590;2024-03-25T07:40:17;94820.70;;;15.71;44.21
17373;BME280;8803;48.116;11.590;2024-03-25T07:44:37;94819.50;;;15.74;44.01
17373;BME280;8803;48.116;11.590;2024-03-25T07:48:59;94818.80;;;15.76;43.88
17373;BME280;8803;48.116;11.590;2024-03-25T07:53:19;94813.43;;;15.76;43.90
17373;BME280;8803;48.116;11.590;2024-03-25T07:57:38;94818.35;;;15.72;43.30
17373;BME280;8803;48.116;11.590;2024-03-25T07:59:44;94813.99;;;15.71;43.39
17373;BME280;8803;48.116;11.590;2024-03-25T08:01:50;94822.74;;;15.69;42.84
17373;BME280;8803;48.116;11.590;2024-03-25T08:03:55;94816.67;;;15.71;42.94
17373;BME280;8803;48.116;11.590;2024-03-25T08:06:00;94813.43;;;15.76;42.98
17373;BME280;8803;48.116;11.590;2024-03-25T08:08:08;94817.03;;;15.83;42.88
17373;BME280;8803;48.116;11.590;2024-03-25T08:12:28;94807.89;;;15.99;43.00
17373;BME280;8803;48.116;11.590;2024-03-25T08:14:33;94809.50;;;15.93;42.41
17373;BME280;8803;48.116;11.590;2024-03-25T08:18:55;94804.34;;;16.02;42.34
17373;BME280;8803;48.116;11.590;2024-03-25T08:23:17;94810.35;;;16.15;42.16
17373;BME280;8803;48.116;11.590;2024-03-25T08:27:36;94807.90;;;16.09;42.04
17373;BME280;8803;48.116;11.590;2024-03-25T08:31:57;94809.56;;;15.89;42.09
17373;BME280;8803;48.116;11.590;2024-03-25T08:36:17;94808.02;;;15.91;41.87
17373;BME280;8803;48.116;11.590;2024-03-25T08:40:40;94806.86;;;15.78;41.96
17373;BME280;8803;48.116;11.590;2024-03-25T08:45:01;94813.97;;;15.61;42.06
17373;BME280;8803;48.116;11.590;2024-03-25T08:51:33;94804.70;;;15.24;42.24
17373;BME280;8803;48.116;11.590;2024-03-25T08:55:55;94801.83;;;15.25;42.67
17373;BME280;8803;48.116;11.590;2024-03-25T09:00:20;94802.61;;;15.30;42.34
17373;BME280;8803;48.116;11.590;2024-03-25T09:04:40;94802.47;;;15.27;43.04
17373;BME280;8803;48.116;11.590;2024-03-25T09:09:01;94796.69;;;15.34;41.67
17373;BME280;8803;48.116;11.590;2024-03-25T09:13:37;94794.76;;;15.28;42.36
17373;BME280;8803;48.116;11.590;2024-03-25T09:15:42;94795.01;;;15.23;42.54
17373;BME280;8803;48.116;11.590;2024-03-25T09:20:02;94784.59;;;15.24;42.36
17373;BME280;8803;48.116;11.590;2024-03-25T09:24:25;94778.24;;;15.21;42.22
17373;BME280;8803;48.116;11.590;2024-03-25T09:28:44;94786.05;;;15.01;42.35
17373;BME280;8803;48.116;11.590;2024-03-25T09:33:04;94772.85;;;14.95;42.21
17373;BME280;8803;48.116;11.590;2024-03-25T09:37:31;94770.56;;;14.78;42.21
17373;BME280;8803;48.116;11.590;2024-03-25T09:41:59;94763.56;;;14.73;42.50
17373;BME280;8803;48.116;11.590;2024-03-25T09:46:18;94758.66;;;14.62;40.39
17373;BME280;8803;48.116;11.590;2024-03-25T09:48:25;94766.86;;;14.46;38.98
17373;BME280;8803;48.116;11.590;2024-03-25T09:52:48;94763.99;;;14.47;41.55
17373;BME280;8803;48.116;11.590;2024-03-25T09:57:07;94761.91;;;14.39;39.61
17373;BME280;8803;48.116;11.590;2024-03-25T10:01:27;94760.92;;;14.17;38.85
17373;BME280;8803;48.116;11.590;2024-03-25T10:05:49;94747.57;;;13.94;38.30
17373;BME280;8803;48.116;11.590;2024-03-25T10:10:11;94736.63;;;13.81;38.84
17373;BME280;8803;48.116;11.590;2024-03-25T10:14:30;94742.14;;;13.57;40.46
17373;BME280;8803;48.116;11.590;2024-03-25T10:18:51;94741.34;;;13.26;38.44
17373;BME280;8803;48.116;11.590;2024-03-25T10:23:11;94746.05;;;13.20;40.77
17373;BME280;8803;48.116;11.590;2024-03-25T10:27:37;94724.35;;;13.15;42.18
17373;BME280;8803;48.116;11.590;2024-03-25T10:32:01;94717.22;;;13.07;42.51
17373;BME280;8803;48.116;11.590;2024-03-25T10:36:22;94719.77;;;12.93;40.26
17373;BME280;8803;48.116;11.590;2024-03-25T10:40:42;94713.59;;;12.92;41.46
17373;BME280;8803;48.116;11.590;2024-03-25T10:45:05;94713.45;;;12.86;40.29
17373;BME280;8803;48.116;11.590;2024-03-25T10:49:36;94700.79;;;12.80;40.96
17373;BME280;8803;48.116;11.590;2024-03-25T10:53:53;94697.16;;;12.68;39.45
17373;BME280;8803;48.116;11.590;2024-03-25T10:58:17;94686.52;;;12.60;39.01
17373;BME280;8803;48.116;11.590;2024-03-25T11:02:35;94682.05;;;12.53;39.21
17373;BME280;8803;48.116;11.590;2024-03-25T11:06:54;94679.69;;;12.54;39.83
17373;BME280;8803;48.116;11.590;2024-03-25T11:11:14;94669.84;;;12.58;40.48
17373;BME280;8803;48.116;11.590;2024-03-25T11:15:39;94669.67;;;12.56;40.52
17373;BME280;8803;48.116;11.590;2024-03-25T11:20:14;94653.88;;;12.46;39.69
17373;BME280;8803;48.116;11.590;2024-03-25T11:24:44;94652.19;;;12.45;41.27
17373;BME280;8803;48.116;11.590;2024-03-25T11:29:05;94638.31;;;12.15;37.75
17373;BME280;8803;48.116;11.590;2024-03-25T11:33:25;94632.59;;;12.22;39.50
17373;BME280;8803;48.116;11.590;2024-03-25T11:37:43;94628.09;;;12.23;40.35
17373;BME280;8803;48.116;11.590;2024-03-25T11:42:07;94627.26;;;12.30;43.08
17373;BME280;8803;48.116;11.590;2024-03-25T11:46:27;94614.39;;;12.34;42.21
17373;BME280;8803;48.116;11.590;2024-03-25T11:48:32;94623.56;;;12.31;42.25
17373;BME280;8803;48.116;11.590;2024-03-25T11:52:51;94606.55;;;12.36;43.27
17373;BME280;8803;48.116;11.590;2024-03-25T11:57:13;94603.53;;;12.35;43.02
17373;BME280;8803;48.116;11.590;2024-03-25T12:01:33;94598.84;;;12.37;43.72
17373;BME280;8803;48.116;11.590;2024-03-25T12:05:54;94598.66;;;12.39;43.94
17373;BME280;8803;48.116;11.590;2024-03-25T12:08:00;94592.67;;;12.37;43.10
17373;BME280;8803;48.116;11.590;2024-03-25T12:12:21;94575.17;;;12.38;43.56
17373;BME280;8803;48.116;11.590;2024-03-25T12:16:40;94572.50;;;12.38;44.38
17373;BME280;8803;48.116;11.590;2024-03-25T12:20:59;94563.97;;;12.39;45.38
17373;BME280;8803;48.116;11.590;2024-03-25T12:25:20;94558.30;;;12.42;45.22
17373;BME280;8803;48.116;11.590;2024-03-25T12:29:39;94549.47;;;12.37;45.54
17373;BME280;8803;48.116;11.590;2024-03-25T12:33:58;94544.41;;;12.20;40.56
17373;BME280;8803;48.116;11.590;2024-03-25T12:36:05;94537.95;;;12.06;39.97
17373;BME280;8803;48.116;11.590;2024-03-25T12:40:29;94532.27;;;12.05;41.24
17373;BME280;8803;48.116;11.590;2024-03-25T12:44:48;94525.64;;;11.97;39.29
17373;BME280;8803;48.116;11.590;2024-03-25T12:49:05;94518.64;;;12.00;41.67
17373;BME280;8803;48.116;11.590;2024-03-25T12:55:44;94513.52;;;11.86;37.48
17373;BME280;8803;48.116;11.590;2024-03-25T13:00:03;94508.16;;;11.90;39.98
17373;BME280;8803;48.116;11.590;2024-03-25T13:04:24;94507.79;;;12.02;43.51
17373;BME280;8803;48.116;11.590;2024-03-25T13:08:54;94489.37;;;11.88;38.28
17373;BME280;8803;48.116;11.590;2024-03-25T13:13:16;94481.12;;;12.02;39.40
17373;BME280;8803;48.116;11.590;2024-03-25T13:17:35;94480.27;;;12.09;41.71
17373;BME280;8803;48.116;11.590;2024-03-25T13:21:57;94469.55;;;12.17;40.06
17373;BME280;8803;48.116;11.590;2024-03-25T13:26:15;94459.22;;;11.83;35.63
17373;BME280;8803;48.116;11.590;2024-03-25T13:30:34;94464.15;;;11.99;38.23
17373;BME280;8803;48.116;11.590;2024-03-25T13:34:53;94445.13;;;11.55;36.54
17373;BME280;8803;48.116;11.590;2024-03-25T13:39:12;94436.88;;;11.38;35.55
17373;BME280;8803;48.116;11.590;2024-03-25T13:43:31;94428.59;;;11.75;37.19
17373;BME280;8803;48.116;11.590;2024-03-25T13:47:50;94420.88;;;11.80;39.61
17373;BME280;8803;48.116;11.590;2024-03-25T13:52:20;94406.53;;;11.85;39.19
17373;BME280;8803;48.116;11.590;2024-03-25T13:56:39;94408.60;;;12.02;38.89
17373;BME280;8803;48.116;11.590;2024-03-25T14:00:58;94408.13;;;11.99;39.55
17373;BME280;8803;48.116;11.590;2024-03-25T14:05:19;94400.38;;;12.08;41.49
17373;BME280;8803;48.116;11.590;2024-03-25T14:09:38;94397.56;;;12.09;39.51
17373;BME280;8803;48.116;11.590;2024-03-25T14:13:55;94385.87;;;12.10;38.84
17373;BME280;8803;48.116;11.590;2024-03-25T14:18:17;94378.61;;;12.23;39.77
17373;BME280;8803;48.116;11.590;2024-03-25T14:22:33;94371.56;;;12.30;40.82
17373;BME280;8803;48.116;11.590;2024-03-25T14:26:52;94375.94;;;12.23;38.63
17373;BME280;8803;48.116;11.590;2024-03-25T14:33:27;94362.23;;;12.03;38.85
17373;BME280;8803;48.116;11.590;2024-03-25T14:37:47;94367.06;;;11.81;38.93
17373;BME280;8803;48.116;11.590;2024-03-25T14:42:07;94358.30;;;11.95;39.52
17373;BME280;8803;48.116;11.590;2024-03-25T14:46:25;94346.51;;;11.89;39.96
17373;BME280;8803;48.116;11.590;2024-03-25T14:53:04;94330.47;;;11.71;39.23
17373;BME280;8803;48.116;11.590;2024-03-25T14:57:22;94327.41;;;11.78;39.88
17373;BME280;8803;48.116;11.590;2024-03-25T15:01:41;94320.09;;;11.76;40.45
17373;BME280;8803;48.116;11.590;2024-03-25T15:06:05;94305.70;;;11.85;40.01
17373;BME280;8803;48.116;11.590;2024-03-25T15:10:23;94303.47;;;11.93;40.27
17373;BME280;8803;48.116;11.590;2024-03-25T15:14:41;94288.34;;;11.89;39.17
17373;BME280;8803;48.116;11.590;2024-03-25T15:19:00;94292.11;;;11.99;39.45
17373;BME280;8803;48.116;11.590;2024-03-25T15:23:20;94283.16;;;11.92;39.54
17373;BME280;8803;48.116;11.590;2024-03-25T15:27:38;94275.44;;;11.74;38.55
17373;BME280;8803;48.116;11.590;2024-03-25T15:32:01;94276.74;;;11.78;39.26
17373;BME280;8803;48.116;11.590;2024-03-25T15:36:19;94276.33;;;11.89;40.02
17373;BME280;8803;48.116;11.590;2024-03-25T15:40:38;94265.81;;;11.92;40.18
17373;BME280;8803;48.116;11.590;2024-03-25T15:44:58;94255.07;;;11.81;39.36
17373;BME280;8803;48.116;11.590;2024-03-25T15:51:29;94247.84;;;11.89;39.76
17373;BME280;8803;48.116;11.590;2024-03-25T15:55:49;94248.18;;;11.86;40.28
17373;BME280;8803;48.116;11.590;2024-03-25T16:00:12;94241.44;;;11.76;39.48
17373;BME280;8803;48.116;11.590;2024-03-25T16:04:29;94236.33;;;11.70;39.72
17373;BME280;8803;48.116;11.590;2024-03-25T16:08:52;94234.12;;;11.74;40.15
17373;BME280;8803;48.116;11.590;2024-03-25T16:13:11;94227.34;;;11.67;39.58
17373;BME280;8803;48.116;11.590;2024-03-25T16:15:17;94226.84;;;11.64;39.36
17373;BME280;8803;48.116;11.590;2024-03-25T16:19:35;94215.00;;;11.70;40.22
17373;BME280;8803;48.116;11.590;2024-03-25T16:23:57;94203.98;;;11.73;40.70
17373;BME280;8803;48.116;11.590;2024-03-25T16:28:19;94210.05;;;11.59;39.42
17373;BME280;8803;48.116;11.590;2024-03-25T16:32:38;94196.26;;;11.56;39.15
17373;BME280;8803;48.116;11.590;2024-03-25T16:36:59;94188.52;;;11.20;39.36
17373;BME280;8803;48.116;11.590;2024-03-25T16:41:20;94196.17;;;10.92;39.67
17373;BME280;8803;48.116;11.590;2024-03-25T16:45:37;94192.05;;;10.85;39.85
17373;BME280;8803;48.116;11.590;2024-03-25T16:49:57;94173.03;;;10.66;39.79
17373;BME280;8803;48.116;11.590;2024-03-25T16:54:15;94175.93;;;10.48;40.55
17373;BME280;8803;48.116;11.590;2024-03-25T16:58:34;94177.89;;;10.54;40.67
17373;BME280;8803;48.116;11.590;2024-03-25T17:02:57;94161.89;;;10.66;40.47
17373;BME280;8803;48.116;11.590;2024-03-25T17:07:15;94162.84;;;11.04;41.11
17373;BME280;8803;48.116;11.590;2024-03-25T17:11:40;94167.95;;;11.09;40.97
17373;BME280;8803;48.116;11.590;2024-03-25T17:16:00;94173.31;;;11.05;41.51
17373;BME280;8803;48.116;11.590;2024-03-25T17:20:23;94168.79;;;11.10;41.62
17373;BME280;8803;48.116;11.590;2024-03-25T17:24:43;94169.16;;;11.03;41.43
17373;BME280;8803;48.116;11.590;2024-03-25T17:29:01;94165.41;;;10.93;41.37
17373;BME280;8803;48.116;11.590;2024-03-25T17:33:22;94157.83;;;11.05;41.99
17373;BME280;8803;48.116;11.590;2024-03-25T17:37:40;94156.34;;;11.02;42.75
17373;BME280;8803;48.116;11.590;2024-03-25T17:42:01;94167.64;;;11.04;42.71
17373;BME280;8803;48.116;11.590;2024-03-25T17:46:25;94156.76;;;10.87;43.20
17373;BME280;8803;48.116;11.590;2024-03-25T17:50:52;94147.47;;;10.83;43.65
17373;BME280;8803;48.116;11.590;2024-03-25T17:55:09;94150.13;;;10.83;44.12
17373;BME280;8803;48.116;11.590;2024-03-25T17:59:27;94160.28;;;10.84;44.43
17373;BME280;8803;48.116;11.590;2024-03-25T18:03:44;94153.21;;;10.72;44.48
17373;BME280;8803;48.116;11.590;2024-03-25T18:08:07;94146.42;;;10.66;44.65
17373;BME280;8803;48.116;11.590;2024-03-25T18:12:27;94151.14;;;10.56;45.21
17373;BME280;8803;48.116;11.590;2024-03-25T18:16:48;94145.61;;;10.61;45.49
17373;BME280;8803;48.116;11.590;2024-03-25T18:21:06;94142.16;;;10.53;45.81
17373;BME280;8803;48.116;11.590;2024-03-25T18:25:27;94144.63;;;10.54;46.25
17373;BME280;8803;48.116;11.590;2024-03-25T18:29:49;94141.44;;;10.63;46.10
17373;BME280;8803;48.116;11.590;2024-03-25T18:34:08;94146.69;;;10.44;46.34
17373;BME280;8803;48.116;11.590;2024-03-25T18:38:29;94142.67;;;10.48;46.26
17373;BME280;8803;48.116;11.590;2024-03-25T18:42:49;94143.05;;;10.37;46.63
17373;BME280;8803;48.116;11.590;2024-03-25T18:47:09;94141.44;;;10.28;46.99
17373;BME280;8803;48.116;11.590;2024-03-25T18:51:27;94136.14;;;10.24;47.27
17373;BME280;8803;48.116;11.590;2024-03-25T18:55:50;94134.28;;;10.24;47.19
17373;BME280;8803;48.116;11.590;2024-03-25T19:00:16;94139.46;;;10.10;47.49
17373;BME280;8803;48.116;11.590;2024-03-25T19:04:38;94135.02;;;10.02;47.70
17373;BME280;8803;48.116;11.590;2024-03-25T19:09:01;94122.41;;;9.96;48.21
17373;BME280;8803;48.116;11.590;2024-03-25T19:13:21;94119.11;;;9.90;48.23
17373;BME280;8803;48.116;11.590;2024-03-25T19:15:27;94116.76;;;9.91;48.54
17373;BME280;8803;48.116;11.590;2024-03-25T19:19:46;94108.30;;;9.92;48.68
17373;BME280;8803;48.116;11.590;2024-03-25T19:24:10;94111.80;;;9.88;48.88
17373;BME280;8803;48.116;11.590;2024-03-25T19:28:32;94103.98;;;9.87;49.03
17373;BME280;8803;48.116;11.590;2024-03-25T19:32:51;94104.23;;;9.61;49.35
17373;BME280;8803;48.116;11.590;2024-03-25T19:37:08;94099.39;;;9.69;49.42
17373;BME280;8803;48.116;11.590;2024-03-25T19:41:30;94089.28;;;9.60;49.63
17373;BME280;8803;48.116;11.590;2024-03-25T19:45:51;94092.11;;;9.59;49.77
17373;BME280;8803;48.116;11.590;2024-03-25T19:50:15;94086.97;;;9.49;49.98
17373;BME280;8803;48.116;11.590;2024-03-25T19:54:35;94083.81;;;9.49;50.54
17373;BME280;8803;48.116;11.590;2024-03-25T19:58:52;94086.81;;;9.42;50.63
17373;BME280;8803;48.116;11.590;2024-03-25T20:03:11;94083.35;;;9.22;50.73
17373;BME280;8803;48.116;11.590;2024-03-25T20:07:30;94079.06;;;9.17;51.35
17373;BME280;8803;48.116;11.590;2024-03-25T20:09:35;94085.84;;;9.11;51.33
17373;BME280;8803;48.116;11.590;2024-03-25T20:13:55;94076.06;;;9.12;51.31
17373;BME280;8803;48.116;11.590;2024-03-25T20:15:59;94076.88;;;9.00;51.74
17373;BME280;8803;48.116;11.590;2024-03-25T20:20:22;94075.56;;;8.96;52.16
17373;BME280;8803;48.116;11.590;2024-03-25T20:24:39;94078.53;;;8.57;52.92
17373;BME280;8803;48.116;11.590;2024-03-25T20:28:57;94082.38;;;8.74;52.79
17373;BME280;8803;48.116;11.590;2024-03-25T20:33:16;94076.05;;;8.63;53.50
17373;BME280;8803;48.116;11.590;2024-03-25T20:37:35;94075.70;;;8.54;53.50
17373;BME280;8803;48.116;11.590;2024-03-25T20:41:55;94069.25;;;8.77;53.18
17373;BME280;8803;48.116;11.590;2024-03-25T20:46:12;94067.61;;;8.64;53.39
17373;BME280;8803;48.116;11.590;2024-03-25T20:50:33;94061.81;;;8.72;53.43
17373;BME280;8803;48.116;11.590;2024-03-25T20:54:52;94052.66;;;8.55;53.97
17373;BME280;8803;48.116;11.590;2024-03-25T20:59:20;94047.71;;;8.68;53.77
17373;BME280;8803;48.116;11.590;2024-03-25T21:03:37;94047.36;;;8.75;53.58
17373;BME280;8803;48.116;11.590;2024-03-25T21:07:57;94042.75;;;8.81;53.60
17373;BME280;8803;48.116;11.590;2024-03-25T21:12:17;94039.75;;;8.60;54.08
17373;BME280;8803;48.116;11.590;2024-03-25T21:16:35;94038.57;;;8.54;54.44
17373;BME280;8803;48.116;11.590;2024-03-25T21:20:55;94035.60;;;8.61;54.17
17373;BME280;8803;48.116;11.590;2024-03-25T21:25:13;94035.25;;;8.64;54.28
17373;BME280;8803;48.116;11.590;2024-03-25T21:29:34;94034.09;;;8.47;54.81
17373;BME280;8803;48.116;11.590;2024-03-25T21:33:53;94030.29;;;7.91;55.79
17373;BME280;8803;48.116;11.590;2024-03-25T21:38:12;94031.09;;;7.42;57.39
17373;BME280;8803;48.116;11.590;2024-03-25T21:42:30;94022.58;;;7.64;57.33
17373;BME280;8803;48.116;11.590;2024-03-25T21:46:51;94023.53;;;7.26;58.56
17373;BME280;8803;48.116;11.590;2024-03-25T21:51:09;94019.31;;;7.11;59.12
17373;BME280;8803;48.116;11.590;2024-03-25T21:55:29;94014.53;;;6.85;60.28
17373;BME280;8803;48.116;11.590;2024-03-25T21:59:48;94016.91;;;6.92;60.21
17373;BME280;8803;48.116;11.590;2024-03-25T22:04:05;94007.13;;;6.92;60.47
17373;BME280;8803;48.116;11.590;2024-03-25T22:08:23;94004.38;;;6.55;62.01
17373;BME280;8803;48.116;11.590;2024-03-25T22:12:42;93986.94;;;6.62;62.00
17373;BME280;8803;48.116;11.590;2024-03-25T22:17:07;93990.06;;;6.61;62.36
17373;BME280;8803;48.116;11.590;2024-03-25T22:21:26;93982.95;;;6.58;62.67
17373;BME280;8803;48.116;11.590;2024-03-25T22:28:04;93975.28;;;6.51;63.13
17373;BME280;8803;48.116;11.590;2024-03-25T22:32:27;93971.83;;;6.54;63.19
17373;BME280;8803;48.116;11.590;2024-03-25T22:36:46;93964.66;;;6.43;63.61
17373;BME280;8803;48.116;11.590;2024-03-25T22:41:05;93960.12;;;6.57;63.37